sensor_id;sensor_type;location;lat;lon;timestamp;P1;durP1;ratioP1;P2;durP2;ratioP2
14849;SDS011;7517;48.400;11.770;2023-11-19T00:00:43;0.70;;;0.70;;
14849;SDS011;7517;48.400;11.770;2023-11-19T00:03:28;0.90;;;0.90;;
14849;SDS011;7517;48.400;11.770;2023-11-19T00:06:12;0.70;;;0.50;;
14849;SDS011;7517;48.400;11.770;2023-11-19T00:08:48;0.60;;;0.60;;
14849;SDS011;7517;48.400;11.770;2023-11-19T00:11:22;2.47;;;2.27;;
14849;SDS011;7517;48.400;11.770;2023-11-19T00:13:55;0.50;;;0.47;;
14849;SDS011;7517;48.400;11.770;2023-11-19T00:16:30;0.40;;;0.40;;
14849;SDS011;7517;48.400;11.770;2023-11-19T00:19:06;0.60;;;0.60;;
14849;SDS011;7517;48.400;11.770;2023-11-19T00:21:40;0.50;;;0.50;;
14849;SDS011;7517;48.400;11.770;2023-11-19T00:24:11;1.20;;;0.50;;
14849;SDS011;7517;48.400;11.770;2023-11-19T00:26:42;0.50;;;0.50;;
14849;SDS011;7517;48.400;11.770;2023-11-19T00:29:17;0.60;;;0.60;;
14849;SDS011;7517;48.400;11.770;2023-11-19T00:31:55;0.70;;;0.70;;
14849;SDS011;7517;48.400;11.770;2023-11-19T00:34:25;0.70;;;0.70;;
14849;SDS011;7517;48.400;11.770;2023-11-19T00:37:11;0.60;;;0.60;;
14849;SDS011;7517;48.400;11.770;2023-11-19T00:39:56;0.70;;;0.70;;
14849;SDS011;7517;48.400;11.770;2023-11-19T00:42:46;0.83;;;0.83;;
14849;SDS011;7517;48.400;11.770;2023-11-19T00:45:18;0.70;;;0.70;;
14849;SDS011;7517;48.400;11.770;2023-11-19T00:47:50;0.60;;;0.60;;
14849;SDS011;7517;48.400;11.770;2023-11-19T00:50:33;0.60;;;0.60;;
14849;SDS011;7517;48.400;11.770;2023-11-19T00:53:16;1.23;;;0.90;;
14849;SDS011;7517;48.400;11.770;2023-11-19T00:55:46;0.53;;;0.53;;
14849;SDS011;7517;48.400;11.770;2023-11-19T00:58:17;1.63;;;0.80;;
14849;SDS011;7517;48.400;11.770;2023-11-19T01:00:55;0.97;;;0.73;;
14849;SDS011;7517;48.400;11.770;2023-11-19T01:03:27;0.90;;;0.90;;
14849;SDS011;7517;48.400;11.770;2023-11-19T01:06:08;1.43;;;1.33;;
14849;SDS011;7517;48.400;11.770;2023-11-19T01:08:52;1.30;;;1.20;;
14849;SDS011;7517;48.400;11.770;2023-11-19T01:11:20;0.90;;;0.83;;
14849;SDS011;7517;48.400;11.770;2023-11-19T01:14:04;0.93;;;0.93;;
14849;SDS011;7517;48.400;11.770;2023-11-19T01:16:52;0.87;;;0.87;;
14849;SDS011;7517;48.400;11.770;2023-11-19T01:19:27;1.17;;;1.07;;
14849;SDS011;7517;48.400;11.770;2023-11-19T01:22:00;1.20;;;1.20;;
14849;SDS011;7517;48.400;11.770;2023-11-19T01:24:33;1.53;;;1.43;;
14849;SDS011;7517;48.400;11.770;2023-11-19T01:27:20;1.40;;;1.30;;
14849;SDS011;7517;48.400;11.770;2023-11-19T01:30:03;1.30;;;1.20;;
14849;SDS011;7517;48.400;11.770;2023-11-19T01:32:38;1.43;;;1.33;;
14849;SDS011;7517;48.400;11.770;2023-11-19T01:35:10;1.10;;;1.10;;
14849;SDS011;7517;48.400;11.770;2023-11-19T01:37:43;1.40;;;1.30;;
14849;SDS011;7517;48.400;11.770;2023-11-19T01:40:19;1.50;;;1.40;;
14849;SDS011;7517;48.400;11.770;2023-11-19T01:42:57;1.20;;;1.20;;
14849;SDS011;7517;48.400;11.770;2023-11-19T01:45:30;1.27;;;1.27;;
14849;SDS011;7517;48.400;11.770;2023-11-19T01:48:05;2.10;;;1.30;;
14849;SDS011;7517;48.400;11.770;2023-11-19T01:50:38;1.43;;;1.33;;
14849;SDS011;7517;48.400;11.770;2023-11-19T01:53:14;1.50;;;1.40;;
14849;SDS011;7517;48.400;11.770;2023-11-19T01:56:01;1.20;;;1.20;;
14849;SDS011;7517;48.400;11.770;2023-11-19T01:58:37;1.73;;;1.63;;
14849;SDS011;7517;48.400;11.770;2023-11-19T02:01:15;1.60;;;1.50;;
14849;SDS011;7517;48.400;11.770;2023-11-19T02:03:47;1.50;;;1.40;;
14849;SDS011;7517;48.400;11.770;2023-11-19T02:06:26;1.47;;;1.37;;
14849;SDS011;7517;48.400;11.770;2023-11-19T02:09:15;1.50;;;1.40;;
14849;SDS011;7517;48.400;11.770;2023-11-19T02:11:57;1.87;;;1.50;;
14849;SDS011;7517;48.400;11.770;2023-11-19T02:14:32;1.20;;;1.20;;
14849;SDS011;7517;48.400;11.770;2023-11-19T02:17:07;1.50;;;1.40;;
14849;SDS011;7517;48.400;11.770;2023-11-19T02:19:59;1.57;;;1.47;;
14849;SDS011;7517;48.400;11.770;2023-11-19T02:22:45;1.50;;;1.40;;
14849;SDS011;7517;48.400;11.770;2023-11-19T02:25:30;1.77;;;1.67;;
14849;SDS011;7517;48.400;11.770;2023-11-19T02:28:13;2.13;;;2.03;;
14849;SDS011;7517;48.400;11.770;2023-11-19T02:30:47;2.50;;;1.73;;
14849;SDS011;7517;48.400;11.770;2023-11-19T02:33:18;1.97;;;1.87;;
14849;SDS011;7517;48.400;11.770;2023-11-19T02:35:56;1.90;;;1.80;;
14849;SDS011;7517;48.400;11.770;2023-11-19T02:38:24;3.40;;;1.93;;
14849;SDS011;7517;48.400;11.770;2023-11-19T02:40:56;2.10;;;2.00;;
14849;SDS011;7517;48.400;11.770;2023-11-19T02:43:37;2.03;;;1.93;;
14849;SDS011;7517;48.400;11.770;2023-11-19T02:46:13;1.70;;;1.60;;
14849;SDS011;7517;48.400;11.770;2023-11-19T02:48:45;3.87;;;1.87;;
14849;SDS011;7517;48.400;11.770;2023-11-19T02:51:14;2.00;;;1.90;;
14849;SDS011;7517;48.400;11.770;2023-11-19T02:54:01;4.00;;;3.43;;
14849;SDS011;7517;48.400;11.770;2023-11-19T02:56:36;3.50;;;2.60;;
14849;SDS011;7517;48.400;11.770;2023-11-19T02:59:12;2.57;;;2.30;;
14849;SDS011;7517;48.400;11.770;2023-11-19T03:01:52;2.70;;;2.50;;
14849;SDS011;7517;48.400;11.770;2023-11-19T03:04:54;2.10;;;2.00;;
14849;SDS011;7517;48.400;11.770;2023-11-19T03:07:29;2.40;;;2.30;;
14849;SDS011;7517;48.400;11.770;2023-11-19T03:09:59;2.10;;;2.00;;
14849;SDS011;7517;48.400;11.770;2023-11-19T03:12:41;2.57;;;2.43;;
14849;SDS011;7517;48.400;11.770;2023-11-19T03:15:13;2.20;;;2.10;;
14849;SDS011;7517;48.400;11.770;2023-11-19T03:17:52;2.20;;;2.10;;
14849;SDS011;7517;48.400;11.770;2023-11-19T03:20:29;2.60;;;2.40;;
14849;SDS011;7517;48.400;11.770;2023-11-19T03:23:08;2.30;;;2.10;;
14849;SDS011;7517;48.400;11.770;2023-11-19T03:25:58;2.00;;;1.90;;
14849;SDS011;7517;48.400;11.770;2023-11-19T03:28:30;2.37;;;2.20;;
14849;SDS011;7517;48.400;11.770;2023-11-19T03:33:45;2.17;;;2.07;;
14849;SDS011;7517;48.400;11.770;2023-11-19T03:36:13;2.63;;;2.20;;
14849;SDS011;7517;48.400;11.770;2023-11-19T03:38:41;2.40;;;2.23;;
14849;SDS011;7517;48.400;11.770;2023-11-19T03:41:13;2.20;;;2.10;;
14849;SDS011;7517;48.400;11.770;2023-11-19T03:43:59;2.00;;;1.90;;
14849;SDS011;7517;48.400;11.770;2023-11-19T03:49:36;2.23;;;2.13;;
14849;SDS011;7517;48.400;11.770;2023-11-19T03:52:21;2.77;;;2.57;;
14849;SDS011;7517;48.400;11.770;2023-11-19T03:55:09;2.57;;;2.30;;
14849;SDS011;7517;48.400;11.770;2023-11-19T03:57:37;2.37;;;2.27;;
14849;SDS011;7517;48.400;11.770;2023-11-19T04:00:31;2.07;;;1.90;;
14849;SDS011;7517;48.400;11.770;2023-11-19T04:03:10;2.03;;;1.93;;
14849;SDS011;7517;48.400;11.770;2023-11-19T04:05:45;2.20;;;2.10;;
14849;SDS011;7517;48.400;11.770;2023-11-19T04:08:15;2.50;;;2.23;;
14849;SDS011;7517;48.400;11.770;2023-11-19T04:10:48;2.53;;;2.10;;
14849;SDS011;7517;48.400;11.770;2023-11-19T04:13:16;2.20;;;2.10;;
14849;SDS011;7517;48.400;11.770;2023-11-19T04:15:44;2.90;;;2.70;;
14849;SDS011;7517;48.400;11.770;2023-11-19T04:21:18;2.27;;;2.17;;
14849;SDS011;7517;48.400;11.770;2023-11-19T04:24:00;2.30;;;2.20;;
14849;SDS011;7517;48.400;11.770;2023-11-19T04:26:45;2.07;;;1.97;;
14849;SDS011;7517;48.400;11.770;2023-11-19T04:29:13;2.57;;;2.37;;
14849;SDS011;7517;48.400;11.770;2023-11-19T04:31:59;2.40;;;2.30;;
14849;SDS011;7517;48.400;11.770;2023-11-19T04:34:31;2.80;;;2.60;;
14849;SDS011;7517;48.400;11.770;2023-11-19T04:37:13;2.57;;;2.37;;
14849;SDS011;7517;48.400;11.770;2023-11-19T04:40:00;2.17;;;2.07;;
14849;SDS011;7517;48.400;11.770;2023-11-19T04:42:34;2.20;;;2.10;;
14849;SDS011;7517;48.400;11.770;2023-11-19T04:45:28;2.13;;;1.93;;
14849;SDS011;7517;48.400;11.770;2023-11-19T04:47:58;2.27;;;2.07;;
14849;SDS011;7517;48.400;11.770;2023-11-19T04:50:39;2.37;;;2.17;;
14849;SDS011;7517;48.400;11.770;2023-11-19T04:53:25;2.40;;;2.20;;
14849;SDS011;7517;48.400;11.770;2023-11-19T04:55:56;2.10;;;2.00;;
14849;SDS011;7517;48.400;11.770;2023-11-19T04:58:42;2.43;;;2.30;;
14849;SDS011;7517;48.400;11.770;2023-11-19T05:01:14;2.40;;;2.20;;
14849;SDS011;7517;48.400;11.770;2023-11-19T05:03:55;1.80;;;1.70;;
14849;SDS011;7517;48.400;11.770;2023-11-19T05:06:31;2.30;;;2.20;;
14849;SDS011;7517;48.400;11.770;2023-11-19T05:09:12;4.17;;;2.37;;
14849;SDS011;7517;48.400;11.770;2023-11-19T05:12:01;1.37;;;1.27;;
14849;SDS011;7517;48.400;11.770;2023-11-19T05:14:37;0.80;;;0.80;;
14849;SDS011;7517;48.400;11.770;2023-11-19T05:17:04;0.40;;;0.40;;
14849;SDS011;7517;48.400;11.770;2023-11-19T05:19:33;0.40;;;0.40;;
14849;SDS011;7517;48.400;11.770;2023-11-19T05:22:02;0.30;;;0.30;;
14849;SDS011;7517;48.400;11.770;2023-11-19T05:24:37;0.30;;;0.30;;
14849;SDS011;7517;48.400;11.770;2023-11-19T05:27:23;0.37;;;0.37;;
14849;SDS011;7517;48.400;11.770;2023-11-19T05:30:00;0.47;;;0.20;;
14849;SDS011;7517;48.400;11.770;2023-11-19T05:32:28;1.17;;;0.20;;
14849;SDS011;7517;48.400;11.770;2023-11-19T05:34:55;0.40;;;0.27;;
14849;SDS011;7517;48.400;11.770;2023-11-19T05:37:24;0.20;;;0.20;;
14849;SDS011;7517;48.400;11.770;2023-11-19T05:39:51;0.30;;;0.30;;
14849;SDS011;7517;48.400;11.770;2023-11-19T05:42:19;1.20;;;0.50;;
14849;SDS011;7517;48.400;11.770;2023-11-19T05:44:48;0.67;;;0.67;;
14849;SDS011;7517;48.400;11.770;2023-11-19T05:47:17;0.50;;;0.50;;
14849;SDS011;7517;48.400;11.770;2023-11-19T05:49:45;0.30;;;0.30;;
14849;SDS011;7517;48.400;11.770;2023-11-19T05:52:12;0.40;;;0.40;;
14849;SDS011;7517;48.400;11.770;2023-11-19T05:54:44;0.43;;;0.40;;
14849;SDS011;7517;48.400;11.770;2023-11-19T05:57:16;0.30;;;0.30;;
14849;SDS011;7517;48.400;11.770;2023-11-19T05:59:47;0.57;;;0.30;;
14849;SDS011;7517;48.400;11.770;2023-11-19T06:02:15;0.40;;;0.40;;
14849;SDS011;7517;48.400;11.770;2023-11-19T06:04:42;0.40;;;0.30;;
14849;SDS011;7517;48.400;11.770;2023-11-19T06:07:13;0.20;;;0.20;;
14849;SDS011;7517;48.400;11.770;2023-11-19T06:09:41;0.20;;;0.20;;
14849;SDS011;7517;48.400;11.770;2023-11-19T06:12:14;0.20;;;0.20;;
14849;SDS011;7517;48.400;11.770;2023-11-19T06:14:43;0.20;;;0.20;;
14849;SDS011;7517;48.400;11.770;2023-11-19T06:17:20;0.20;;;0.20;;
14849;SDS011;7517;48.400;11.770;2023-11-19T06:20:12;0.23;;;0.23;;
14849;SDS011;7517;48.400;11.770;2023-11-19T06:22:42;0.27;;;0.27;;
14849;SDS011;7517;48.400;11.770;2023-11-19T06:25:12;0.40;;;0.40;;
14849;SDS011;7517;48.400;11.770;2023-11-19T06:27:41;0.40;;;0.40;;
14849;SDS011;7517;48.400;11.770;2023-11-19T06:30:11;0.30;;;0.30;;
14849;SDS011;7517;48.400;11.770;2023-11-19T06:32:39;0.10;;;0.10;;
14849;SDS011;7517;48.400;11.770;2023-11-19T06:35:15;0.40;;;0.40;;
14849;SDS011;7517;48.400;11.770;2023-11-19T06:37:51;0.40;;;0.40;;
14849;SDS011;7517;48.400;11.770;2023-11-19T06:40:28;0.57;;;0.57;;
14849;SDS011;7517;48.400;11.770;2023-11-19T06:43:08;0.50;;;0.50;;
14849;SDS011;7517;48.400;11.770;2023-11-19T06:45:45;0.30;;;0.30;;
14849;SDS011;7517;48.400;11.770;2023-11-19T06:48:14;0.37;;;0.37;;
14849;SDS011;7517;48.400;11.770;2023-11-19T06:50:42;0.13;;;0.13;;
14849;SDS011;7517;48.400;11.770;2023-11-19T06:53:09;0.47;;;0.40;;
14849;SDS011;7517;48.400;11.770;2023-11-19T06:55:37;0.60;;;0.53;;
14849;SDS011;7517;48.400;11.770;2023-11-19T06:58:05;0.50;;;0.50;;
14849;SDS011;7517;48.400;11.770;2023-11-19T07:00:32;0.43;;;0.43;;
14849;SDS011;7517;48.400;11.770;2023-11-19T07:03:01;0.27;;;0.27;;
14849;SDS011;7517;48.400;11.770;2023-11-19T07:05:29;0.40;;;0.40;;
14849;SDS011;7517;48.400;11.770;2023-11-19T07:08:00;0.50;;;0.50;;
14849;SDS011;7517;48.400;11.770;2023-11-19T07:10:40;0.40;;;0.40;;
14849;SDS011;7517;48.400;11.770;2023-11-19T07:13:07;0.20;;;0.20;;
14849;SDS011;7517;48.400;11.770;2023-11-19T07:15:46;0.47;;;0.47;;
14849;SDS011;7517;48.400;11.770;2023-11-19T07:18:13;0.30;;;0.30;;
14849;SDS011;7517;48.400;11.770;2023-11-19T07:20:41;0.27;;;0.27;;
14849;SDS011;7517;48.400;11.770;2023-11-19T07:23:08;0.30;;;0.30;;
14849;SDS011;7517;48.400;11.770;2023-11-19T07:25:37;0.30;;;0.30;;
14849;SDS011;7517;48.400;11.770;2023-11-19T07:28:12;1.00;;;0.30;;
14849;SDS011;7517;48.400;11.770;2023-11-19T07:30:40;0.40;;;0.40;;
14849;SDS011;7517;48.400;11.770;2023-11-19T07:33:11;1.70;;;0.40;;
14849;SDS011;7517;48.400;11.770;2023-11-19T07:35:38;0.30;;;0.30;;
14849;SDS011;7517;48.400;11.770;2023-11-19T07:38:07;1.10;;;1.00;;
14849;SDS011;7517;48.400;11.770;2023-11-19T07:40:34;1.50;;;1.30;;
14849;SDS011;7517;48.400;11.770;2023-11-19T07:43:03;0.73;;;0.60;;
14849;SDS011;7517;48.400;11.770;2023-11-19T07:45:32;0.50;;;0.50;;
14849;SDS011;7517;48.400;11.770;2023-11-19T07:47:59;0.53;;;0.40;;
14849;SDS011;7517;48.400;11.770;2023-11-19T07:50:27;0.47;;;0.47;;
14849;SDS011;7517;48.400;11.770;2023-11-19T07:52:56;0.47;;;0.40;;
14849;SDS011;7517;48.400;11.770;2023-11-19T07:55:23;0.40;;;0.40;;
14849;SDS011;7517;48.400;11.770;2023-11-19T07:57:52;0.60;;;0.60;;
14849;SDS011;7517;48.400;11.770;2023-11-19T08:00:21;0.53;;;0.53;;
14849;SDS011;7517;48.400;11.770;2023-11-19T08:02:50;0.80;;;0.80;;
14849;SDS011;7517;48.400;11.770;2023-11-19T08:05:18;2.10;;;1.90;;
14849;SDS011;7517;48.400;11.770;2023-11-19T08:07:45;1.40;;;1.30;;
14849;SDS011;7517;48.400;11.770;2023-11-19T08:10:12;1.03;;;1.03;;
14849;SDS011;7517;48.400;11.770;2023-11-19T08:12:40;0.80;;;0.80;;
14849;SDS011;7517;48.400;11.770;2023-11-19T08:15:07;0.63;;;0.63;;
14849;SDS011;7517;48.400;11.770;2023-11-19T08:17:37;0.70;;;0.70;;
14849;SDS011;7517;48.400;11.770;2023-11-19T08:20:04;0.90;;;0.90;;
14849;SDS011;7517;48.400;11.770;2023-11-19T08:22:35;0.97;;;0.90;;
14849;SDS011;7517;48.400;11.770;2023-11-19T08:25:03;0.73;;;0.73;;
14849;SDS011;7517;48.400;11.770;2023-11-19T08:27:31;0.97;;;0.97;;
14849;SDS011;7517;48.400;11.770;2023-11-19T08:29:58;1.50;;;1.40;;
14849;SDS011;7517;48.400;11.770;2023-11-19T08:32:25;0.80;;;0.80;;
14849;SDS011;7517;48.400;11.770;2023-11-19T08:34:54;1.37;;;1.27;;
14849;SDS011;7517;48.400;11.770;2023-11-19T08:37:21;2.30;;;0.97;;
14849;SDS011;7517;48.400;11.770;2023-11-19T08:39:49;1.00;;;0.90;;
14849;SDS011;7517;48.400;11.770;2023-11-19T08:42:16;1.00;;;1.00;;
14849;SDS011;7517;48.400;11.770;2023-11-19T08:44:44;0.57;;;0.57;;
14849;SDS011;7517;48.400;11.770;2023-11-19T08:47:19;2.23;;;2.03;;
14849;SDS011;7517;48.400;11.770;2023-11-19T08:49:47;0.90;;;0.90;;
14849;SDS011;7517;48.400;11.770;2023-11-19T08:52:18;0.90;;;0.90;;
14849;SDS011;7517;48.400;11.770;2023-11-19T08:54:45;1.97;;;1.87;;
14849;SDS011;7517;48.400;11.770;2023-11-19T08:57:12;2.20;;;2.10;;
14849;SDS011;7517;48.400;11.770;2023-11-19T08:59:40;1.90;;;1.80;;
14849;SDS011;7517;48.400;11.770;2023-11-19T09:02:08;1.00;;;1.00;;
14849;SDS011;7517;48.400;11.770;2023-11-19T09:04:35;0.87;;;0.87;;
14849;SDS011;7517;48.400;11.770;2023-11-19T09:07:02;0.70;;;0.70;;
14849;SDS011;7517;48.400;11.770;2023-11-19T09:09:31;0.70;;;0.70;;
14849;SDS011;7517;48.400;11.770;2023-11-19T09:12:00;0.60;;;0.60;;
14849;SDS011;7517;48.400;11.770;2023-11-19T09:14:30;0.80;;;0.80;;
14849;SDS011;7517;48.400;11.770;2023-11-19T09:16:58;0.70;;;0.70;;
14849;SDS011;7517;48.400;11.770;2023-11-19T09:19:27;1.23;;;1.20;;
14849;SDS011;7517;48.400;11.770;2023-11-19T09:21:55;1.20;;;1.20;;
14849;SDS011;7517;48.400;11.770;2023-11-19T09:24:23;1.10;;;1.10;;
14849;SDS011;7517;48.400;11.770;2023-11-19T09:27:00;0.70;;;0.70;;
14849;SDS011;7517;48.400;11.770;2023-11-19T09:29:27;0.60;;;0.60;;
14849;SDS011;7517;48.400;11.770;2023-11-19T09:31:57;0.60;;;0.60;;
14849;SDS011;7517;48.400;11.770;2023-11-19T09:34:25;0.63;;;0.63;;
14849;SDS011;7517;48.400;11.770;2023-11-19T09:36:53;1.17;;;1.17;;
14849;SDS011;7517;48.400;11.770;2023-11-19T09:39:21;0.60;;;0.60;;
14849;SDS011;7517;48.400;11.770;2023-11-19T09:41:50;0.50;;;0.50;;
14849;SDS011;7517;48.400;11.770;2023-11-19T09:44:19;0.43;;;0.43;;
14849;SDS011;7517;48.400;11.770;2023-11-19T09:46:47;0.50;;;0.50;;
14849;SDS011;7517;48.400;11.770;2023-11-19T09:49:14;0.30;;;0.30;;
14849;SDS011;7517;48.400;11.770;2023-11-19T09:51:47;0.40;;;0.30;;
14849;SDS011;7517;48.400;11.770;2023-11-19T09:54:14;0.37;;;0.37;;
14849;SDS011;7517;48.400;11.770;2023-11-19T09:56:41;0.27;;;0.27;;
14849;SDS011;7517;48.400;11.770;2023-11-19T09:59:10;0.30;;;0.30;;
14849;SDS011;7517;48.400;11.770;2023-11-19T10:01:39;0.20;;;0.20;;
14849;SDS011;7517;48.400;11.770;2023-11-19T10:04:07;0.57;;;0.57;;
14849;SDS011;7517;48.400;11.770;2023-11-19T10:06:36;1.00;;;1.00;;
14849;SDS011;7517;48.400;11.770;2023-11-19T10:09:03;2.00;;;1.90;;
14849;SDS011;7517;48.400;11.770;2023-11-19T10:11:31;0.90;;;0.90;;
14849;SDS011;7517;48.400;11.770;2023-11-19T10:13:58;1.77;;;1.40;;
14849;SDS011;7517;48.400;11.770;2023-11-19T10:16:28;0.97;;;0.97;;
14849;SDS011;7517;48.400;11.770;2023-11-19T10:18:59;0.50;;;0.50;;
14849;SDS011;7517;48.400;11.770;2023-11-19T10:21:27;0.50;;;0.40;;
14849;SDS011;7517;48.400;11.770;2023-11-19T10:23:57;0.30;;;0.30;;
14849;SDS011;7517;48.400;11.770;2023-11-19T10:26:27;0.30;;;0.30;;
14849;SDS011;7517;48.400;11.770;2023-11-19T10:28:55;0.30;;;0.30;;
14849;SDS011;7517;48.400;11.770;2023-11-19T10:31:23;0.30;;;0.30;;
14849;SDS011;7517;48.400;11.770;2023-11-19T10:33:51;1.40;;;0.30;;
14849;SDS011;7517;48.400;11.770;2023-11-19T10:36:21;0.40;;;0.40;;
14849;SDS011;7517;48.400;11.770;2023-11-19T10:38:53;0.50;;;0.20;;
14849;SDS011;7517;48.400;11.770;2023-11-19T10:41:28;0.37;;;0.20;;
14849;SDS011;7517;48.400;11.770;2023-11-19T10:43:57;0.30;;;0.30;;
14849;SDS011;7517;48.400;11.770;2023-11-19T10:46:36;0.30;;;0.30;;
14849;SDS011;7517;48.400;11.770;2023-11-19T10:49:05;1.20;;;1.10;;
14849;SDS011;7517;48.400;11.770;2023-11-19T10:51:34;4.37;;;2.70;;
14849;SDS011;7517;48.400;11.770;2023-11-19T10:54:02;2.90;;;1.73;;
14849;SDS011;7517;48.400;11.770;2023-11-19T10:56:32;1.00;;;0.80;;
14849;SDS011;7517;48.400;11.770;2023-11-19T10:59:00;0.47;;;0.47;;
14849;SDS011;7517;48.400;11.770;2023-11-19T11:01:32;0.30;;;0.30;;
14849;SDS011;7517;48.400;11.770;2023-11-19T11:04:07;0.40;;;0.40;;
14849;SDS011;7517;48.400;11.770;2023-11-19T11:06:46;0.30;;;0.30;;
14849;SDS011;7517;48.400;11.770;2023-11-19T11:09:15;0.53;;;0.30;;
14849;SDS011;7517;48.400;11.770;2023-11-19T11:11:45;0.77;;;0.70;;
14849;SDS011;7517;48.400;11.770;2023-11-19T11:14:14;0.60;;;0.43;;
14849;SDS011;7517;48.400;11.770;2023-11-19T11:16:45;0.60;;;0.30;;
14849;SDS011;7517;48.400;11.770;2023-11-19T11:19:15;0.53;;;0.40;;
14849;SDS011;7517;48.400;11.770;2023-11-19T11:21:44;0.47;;;0.30;;
14849;SDS011;7517;48.400;11.770;2023-11-19T11:27:28;0.50;;;0.37;;
14849;SDS011;7517;48.400;11.770;2023-11-19T11:30:20;0.93;;;0.30;;
14849;SDS011;7517;48.400;11.770;2023-11-19T11:33:18;0.20;;;0.20;;
14849;SDS011;7517;48.400;11.770;2023-11-19T11:36:02;0.20;;;0.20;;
14849;SDS011;7517;48.400;11.770;2023-11-19T11:38:48;0.20;;;0.20;;
14849;SDS011;7517;48.400;11.770;2023-11-19T11:41:18;0.27;;;0.27;;
14849;SDS011;7517;48.400;11.770;2023-11-19T11:43:48;0.20;;;0.20;;
14849;SDS011;7517;48.400;11.770;2023-11-19T11:49:27;0.97;;;0.70;;
14849;SDS011;7517;48.400;11.770;2023-11-19T11:52:02;1.53;;;1.30;;
14849;SDS011;7517;48.400;11.770;2023-11-19T11:54:32;1.37;;;1.07;;
14849;SDS011;7517;48.400;11.770;2023-11-19T11:57:01;0.70;;;0.70;;
14849;SDS011;7517;48.400;11.770;2023-11-19T11:59:48;0.53;;;0.47;;
14849;SDS011;7517;48.400;11.770;2023-11-19T12:02:16;0.40;;;0.40;;
14849;SDS011;7517;48.400;11.770;2023-11-19T12:04:47;0.57;;;0.57;;
14849;SDS011;7517;48.400;11.770;2023-11-19T12:07:16;0.60;;;0.47;;
14849;SDS011;7517;48.400;11.770;2023-11-19T12:09:52;0.30;;;0.30;;
14849;SDS011;7517;48.400;11.770;2023-11-19T12:12:33;0.30;;;0.27;;
14849;SDS011;7517;48.400;11.770;2023-11-19T12:15:03;0.30;;;0.20;;
14849;SDS011;7517;48.400;11.770;2023-11-19T12:17:41;0.30;;;0.30;;
14849;SDS011;7517;48.400;11.770;2023-11-19T12:20:15;0.97;;;0.30;;
14849;SDS011;7517;48.400;11.770;2023-11-19T12:22:45;0.27;;;0.27;;
14849;SDS011;7517;48.400;11.770;2023-11-19T12:25:16;0.23;;;0.23;;
14849;SDS011;7517;48.400;11.770;2023-11-19T12:27:45;0.20;;;0.20;;
14849;SDS011;7517;48.400;11.770;2023-11-19T12:30:16;0.20;;;0.20;;
14849;SDS011;7517;48.400;11.770;2023-11-19T12:32:49;0.53;;;0.20;;
14849;SDS011;7517;48.400;11.770;2023-11-19T12:35:18;0.33;;;0.33;;
14849;SDS011;7517;48.400;11.770;2023-11-19T12:37:47;0.30;;;0.30;;
14849;SDS011;7517;48.400;11.770;2023-11-19T12:40:18;0.20;;;0.20;;
14849;SDS011;7517;48.400;11.770;2023-11-19T12:42:47;0.30;;;0.30;;
14849;SDS011;7517;48.400;11.770;2023-11-19T12:45:15;0.20;;;0.20;;
14849;SDS011;7517;48.400;11.770;2023-11-19T12:47:44;0.20;;;0.20;;
14849;SDS011;7517;48.400;11.770;2023-11-19T12:50:13;0.30;;;0.30;;
14849;SDS011;7517;48.400;11.770;2023-11-19T12:52:43;0.30;;;0.30;;
14849;SDS011;7517;48.400;11.770;2023-11-19T12:55:28;0.30;;;0.30;;
14849;SDS011;7517;48.400;11.770;2023-11-19T12:57:57;0.20;;;0.20;;
14849;SDS011;7517;48.400;11.770;2023-11-19T13:00:25;2.67;;;0.40;;
14849;SDS011;7517;48.400;11.770;2023-11-19T13:02:55;0.33;;;0.30;;
14849;SDS011;7517;48.400;11.770;2023-11-19T13:05:24;0.40;;;0.40;;
14849;SDS011;7517;48.400;11.770;2023-11-19T13:08:00;0.20;;;0.20;;
14849;SDS011;7517;48.400;11.770;2023-11-19T13:10:32;0.30;;;0.20;;
14849;SDS011;7517;48.400;11.770;2023-11-19T13:13:15;0.10;;;0.10;;
14849;SDS011;7517;48.400;11.770;2023-11-19T13:15:43;0.30;;;0.30;;
14849;SDS011;7517;48.400;11.770;2023-11-19T13:18:12;0.30;;;0.30;;
14849;SDS011;7517;48.400;11.770;2023-11-19T13:20:46;0.40;;;0.40;;
14849;SDS011;7517;48.400;11.770;2023-11-19T13:23:15;0.30;;;0.30;;
14849;SDS011;7517;48.400;11.770;2023-11-19T13:25:44;0.20;;;0.20;;
14849;SDS011;7517;48.400;11.770;2023-11-19T13:28:12;0.37;;;0.30;;
14849;SDS011;7517;48.400;11.770;2023-11-19T13:30:41;0.50;;;0.50;;
14849;SDS011;7517;48.400;11.770;2023-11-19T13:33:09;0.97;;;0.70;;
14849;SDS011;7517;48.400;11.770;2023-11-19T13:35:38;0.43;;;0.40;;
14849;SDS011;7517;48.400;11.770;2023-11-19T13:38:06;1.03;;;0.20;;
14849;SDS011;7517;48.400;11.770;2023-11-19T13:40:34;0.50;;;0.50;;
14849;SDS011;7517;48.400;11.770;2023-11-19T13:43:03;0.40;;;0.40;;
14849;SDS011;7517;48.400;11.770;2023-11-19T13:45:31;0.30;;;0.30;;
14849;SDS011;7517;48.400;11.770;2023-11-19T13:47:58;0.50;;;0.50;;
14849;SDS011;7517;48.400;11.770;2023-11-19T13:50:25;0.60;;;0.60;;
14849;SDS011;7517;48.400;11.770;2023-11-19T13:52:53;0.30;;;0.30;;
14849;SDS011;7517;48.400;11.770;2023-11-19T13:55:21;0.97;;;0.60;;
14849;SDS011;7517;48.400;11.770;2023-11-19T13:57:48;0.30;;;0.30;;
14849;SDS011;7517;48.400;11.770;2023-11-19T14:00:19;0.20;;;0.20;;
14849;SDS011;7517;48.400;11.770;2023-11-19T14:02:48;0.30;;;0.30;;
14849;SDS011;7517;48.400;11.770;2023-11-19T14:05:15;0.30;;;0.20;;
14849;SDS011;7517;48.400;11.770;2023-11-19T14:07:43;0.30;;;0.30;;
14849;SDS011;7517;48.400;11.770;2023-11-19T14:10:13;0.37;;;0.37;;
14849;SDS011;7517;48.400;11.770;2023-11-19T14:12:41;0.30;;;0.30;;
14849;SDS011;7517;48.400;11.770;2023-11-19T14:15:09;0.37;;;0.20;;
14849;SDS011;7517;48.400;11.770;2023-11-19T14:17:42;0.10;;;0.10;;
14849;SDS011;7517;48.400;11.770;2023-11-19T14:20:09;0.30;;;0.27;;
14849;SDS011;7517;48.400;11.770;2023-11-19T14:22:39;0.40;;;0.30;;
14849;SDS011;7517;48.400;11.770;2023-11-19T14:25:07;0.50;;;0.50;;
14849;SDS011;7517;48.400;11.770;2023-11-19T14:27:46;0.57;;;0.57;;
14849;SDS011;7517;48.400;11.770;2023-11-19T14:30:14;0.27;;;0.20;;
14849;SDS011;7517;48.400;11.770;2023-11-19T14:32:45;0.60;;;0.60;;
14849;SDS011;7517;48.400;11.770;2023-11-19T14:35:14;0.43;;;0.40;;
14849;SDS011;7517;48.400;11.770;2023-11-19T14:37:42;0.33;;;0.33;;
14849;SDS011;7517;48.400;11.770;2023-11-19T14:40:09;0.60;;;0.60;;
14849;SDS011;7517;48.400;11.770;2023-11-19T14:42:37;0.70;;;0.70;;
14849;SDS011;7517;48.400;11.770;2023-11-19T14:45:05;1.70;;;1.60;;
14849;SDS011;7517;48.400;11.770;2023-11-19T14:47:37;1.70;;;1.60;;
14849;SDS011;7517;48.400;11.770;2023-11-19T14:50:06;1.60;;;1.50;;
14849;SDS011;7517;48.400;11.770;2023-11-19T14:52:34;0.80;;;0.80;;
14849;SDS011;7517;48.400;11.770;2023-11-19T14:55:02;0.70;;;0.70;;
14849;SDS011;7517;48.400;11.770;2023-11-19T14:57:30;2.00;;;0.73;;
14849;SDS011;7517;48.400;11.770;2023-11-19T15:00:00;1.40;;;1.30;;
14849;SDS011;7517;48.400;11.770;2023-11-19T15:02:37;1.23;;;0.83;;
14849;SDS011;7517;48.400;11.770;2023-11-19T15:05:08;1.17;;;1.10;;
14849;SDS011;7517;48.400;11.770;2023-11-19T15:07:36;0.80;;;0.80;;
14849;SDS011;7517;48.400;11.770;2023-11-19T15:10:04;1.23;;;1.07;;
14849;SDS011;7517;48.400;11.770;2023-11-19T15:12:35;1.63;;;1.47;;
14849;SDS011;7517;48.400;11.770;2023-11-19T15:15:06;1.37;;;1.27;;
14849;SDS011;7517;48.400;11.770;2023-11-19T15:17:39;1.30;;;1.20;;
14849;SDS011;7517;48.400;11.770;2023-11-19T15:20:10;0.90;;;0.80;;
14849;SDS011;7517;48.400;11.770;2023-11-19T15:22:40;0.90;;;0.70;;
14849;SDS011;7517;48.400;11.770;2023-11-19T15:25:08;1.47;;;1.37;;
14849;SDS011;7517;48.400;11.770;2023-11-19T15:27:36;1.50;;;1.40;;
14849;SDS011;7517;48.400;11.770;2023-11-19T15:30:07;1.13;;;1.03;;
14849;SDS011;7517;48.400;11.770;2023-11-19T15:32:36;1.30;;;1.20;;
14849;SDS011;7517;48.400;11.770;2023-11-19T15:35:04;2.47;;;1.30;;